Terminal Aerodrome Forecast
Issued by NWS

Home | Current Version | Previous Version | Text Only | Print | Product List | Glossary On
Versions: 1 2 3 4 5 6 7 8 9 10 11 12 13 14 15 16 17 18 19
000
FTAK31 PAJN 281700
TAFAKT
TAF
PAKT 281720Z 2818/2918 14005KT P6SM -RA FEW010 SCT015 OVC025
     FM282100 14011KT 6SM -RA BR FEW010 BKN025 OVC050
     FM290300 14006KT 4SM -RA BR FEW005 BKN015 OVC025
      AMD LTD TO CLD VIS AND WIND 2906/2915=

USA.gov is the U.S. government's official web portal to all federal, state and local government web resources and services.